createdAt,value
2019-04-16T00:00:32.551Z,0.00
2019-04-16T00:01:32.520Z,0.00
2019-04-16T00:02:32.511Z,0.00
2019-04-16T00:03:32.513Z,0.00
2019-04-16T00:04:32.513Z,0.00
2019-04-16T00:05:32.505Z,0.00
2019-04-16T00:06:32.478Z,0.00
2019-04-16T00:07:32.460Z,0.00
2019-04-16T00:08:32.443Z,0.00
2019-04-16T00:09:32.448Z,0.00
2019-04-16T00:10:32.469Z,0.00
2019-04-16T00:11:32.414Z,0.00
2019-04-16T00:12:32.407Z,0.00
2019-04-16T00:13:32.391Z,0.00
2019-04-16T00:14:32.414Z,0.00
2019-04-16T00:15:32.403Z,0.00
2019-04-16T00:16:32.371Z,0.00
2019-04-16T00:17:32.345Z,0.00
2019-04-16T00:18:32.337Z,0.00
2019-04-16T00:19:34.764Z,0.00
2019-04-16T00:20:36.705Z,0.00
2019-04-16T00:21:33.310Z,0.00
2019-04-16T00:22:32.302Z,0.00
2019-04-16T00:23:32.300Z,0.00
2019-04-16T00:24:32.296Z,0.00
2019-04-16T00:25:32.279Z,0.00
2019-04-16T00:26:32.281Z,0.00
2019-04-16T00:27:32.249Z,0.00
2019-04-16T00:28:32.234Z,0.00
2019-04-16T00:29:32.941Z,0.00
2019-04-16T00:30:35.503Z,0.00
2019-04-16T00:31:34.360Z,0.00
2019-04-16T00:32:32.205Z,0.00
2019-04-16T00:33:32.184Z,0.00
2019-04-16T00:34:32.195Z,0.00
2019-04-16T00:35:32.160Z,0.00
2019-04-16T00:36:32.165Z,0.00
2019-04-16T00:37:32.151Z,0.00
2019-04-16T00:38:40.751Z,0.00
2019-04-16T00:39:33.128Z,0.00
2019-04-16T00:40:32.106Z,0.00
2019-04-16T00:41:32.141Z,0.00
2019-04-16T00:42:32.091Z,0.00
2019-04-16T00:43:32.093Z,0.00
2019-04-16T00:44:32.083Z,0.00
2019-04-16T00:45:32.049Z,0.00
2019-04-16T00:46:32.066Z,0.00
2019-04-16T00:47:32.055Z,0.00
2019-04-16T00:48:32.022Z,0.00
2019-04-16T00:49:32.008Z,0.00
2019-04-16T00:50:31.999Z,0.00
2019-04-16T00:51:32.023Z,0.00
2019-04-16T00:52:36.710Z,0.00
2019-04-16T00:53:32.964Z,0.00
2019-04-16T00:54:31.962Z,0.00
2019-04-16T00:55:31.966Z,0.00
2019-04-16T00:56:31.971Z,0.00
2019-04-16T00:57:31.926Z,0.00
2019-04-16T00:58:31.927Z,0.00
2019-04-16T00:59:31.902Z,0.00
2019-04-16T01:00:31.892Z,0.00
2019-04-16T01:01:31.963Z,0.00
2019-04-16T01:02:31.886Z,0.00
2019-04-16T01:03:31.871Z,0.00
2019-04-16T01:04:31.921Z,0.00
2019-04-16T01:05:35.043Z,0.00
2019-04-16T01:06:31.841Z,0.00
2019-04-16T01:07:31.883Z,0.00
2019-04-16T01:08:31.844Z,0.00
2019-04-16T01:09:31.798Z,0.00
2019-04-16T01:10:31.799Z,0.00
2019-04-16T01:11:31.793Z,0.00
2019-04-16T01:12:31.799Z,0.00
2019-04-16T01:13:31.815Z,0.00
2019-04-16T01:14:31.747Z,0.00
2019-04-16T01:15:32.689Z,0.00
2019-04-16T01:16:33.005Z,0.00
2019-04-16T01:17:33.406Z,0.00
2019-04-16T01:18:31.713Z,0.00
2019-04-16T01:19:31.690Z,0.00
2019-04-16T01:20:31.685Z,0.00
2019-04-16T01:21:31.686Z,0.00
2019-04-16T01:22:31.735Z,0.00
2019-04-16T01:23:31.654Z,0.00
2019-04-16T01:24:31.643Z,0.00
2019-04-16T01:25:31.633Z,0.00
2019-04-16T01:26:31.630Z,0.00
2019-04-16T01:27:31.638Z,0.00
2019-04-16T01:28:32.598Z,0.00
2019-04-16T01:29:33.846Z,0.00
2019-04-16T01:30:36.245Z,0.00
2019-04-16T01:31:31.580Z,0.00
2019-04-16T01:32:31.559Z,0.00
2019-04-16T01:33:31.571Z,0.00
2019-04-16T01:34:31.563Z,0.00
2019-04-16T01:35:31.540Z,0.00
2019-04-16T01:36:31.522Z,0.00
2019-04-16T01:37:31.503Z,0.00
2019-04-16T01:38:31.515Z,0.00
2019-04-16T01:39:31.502Z,0.00
2019-04-16T01:40:31.474Z,0.00
2019-04-16T01:41:31.494Z,0.00
2019-04-16T01:42:31.452Z,0.00
2019-04-16T01:43:31.462Z,0.00
2019-04-16T01:44:31.438Z,0.00
2019-04-16T01:45:31.444Z,0.00
2019-04-16T01:46:32.810Z,0.00
2019-04-16T01:47:35.936Z,0.00
2019-04-16T01:48:32.412Z,0.00
2019-04-16T01:49:31.382Z,0.00
2019-04-16T01:50:31.385Z,0.00
2019-04-16T01:51:31.358Z,0.00
2019-04-16T01:52:31.348Z,0.00
2019-04-16T01:53:31.407Z,0.00
2019-04-16T01:54:31.334Z,0.00
2019-04-16T01:55:31.325Z,0.00
2019-04-16T01:56:31.340Z,0.00
2019-04-16T01:57:31.379Z,0.00
2019-04-16T01:58:33.912Z,0.00
2019-04-16T01:59:35.657Z,0.00
2019-04-16T02:00:32.282Z,0.00
2019-04-16T02:01:31.247Z,0.00
2019-04-16T02:02:31.260Z,0.00
2019-04-16T02:03:31.250Z,0.00
2019-04-16T02:04:31.241Z,0.00
2019-04-16T02:05:31.219Z,0.00
2019-04-16T02:06:31.203Z,0.00
2019-04-16T02:07:31.184Z,0.00
2019-04-16T02:08:31.824Z,0.00
2019-04-16T02:09:34.132Z,0.00
2019-04-16T02:10:31.181Z,0.00
2019-04-16T02:11:31.149Z,0.00
2019-04-16T02:12:31.146Z,0.00
2019-04-16T02:13:31.153Z,0.00
2019-04-16T02:14:31.123Z,0.00
2019-04-16T02:15:31.105Z,0.00
2019-04-16T02:16:31.093Z,0.00
2019-04-16T02:17:31.091Z,0.00
2019-04-16T02:18:31.073Z,0.00
2019-04-16T02:19:32.891Z,0.00
2019-04-16T02:20:31.049Z,0.00
2019-04-16T02:21:31.049Z,0.00
2019-04-16T02:22:31.087Z,0.00
2019-04-16T02:23:31.028Z,0.00
2019-04-16T02:24:31.030Z,0.00
2019-04-16T02:25:31.000Z,0.00
2019-04-16T02:26:30.987Z,0.00
2019-04-16T02:27:30.987Z,0.00
2019-04-16T02:28:30.986Z,0.00
2019-04-16T02:29:30.988Z,0.00
2019-04-16T02:30:37.356Z,0.00
2019-04-16T02:31:31.937Z,0.00
2019-04-16T02:32:30.937Z,0.00
2019-04-16T02:33:30.947Z,0.00
2019-04-16T02:34:30.927Z,0.00
2019-04-16T02:35:30.931Z,0.00
2019-04-16T02:36:30.913Z,0.00
2019-04-16T02:37:35.898Z,0.00
2019-04-16T02:38:31.883Z,0.00
2019-04-16T02:39:47.242Z,0.00
2019-04-16T02:40:31.836Z,0.00
2019-04-16T02:41:30.835Z,0.00
2019-04-16T02:42:32.068Z,0.00
2019-04-16T02:43:30.832Z,0.00
2019-04-16T02:44:30.799Z,0.00
2019-04-16T02:45:30.820Z,0.00
2019-04-16T02:46:32.579Z,0.00
2019-04-16T02:47:30.790Z,0.00
2019-04-16T02:48:30.783Z,0.00
2019-04-16T02:49:30.746Z,0.00
2019-04-16T02:50:32.087Z,0.00
2019-04-16T02:51:30.734Z,0.00
2019-04-16T02:52:30.718Z,0.00
2019-04-16T02:53:30.746Z,0.00
2019-04-16T02:54:33.963Z,0.00
2019-04-16T02:55:30.743Z,0.00
2019-04-16T02:56:30.680Z,0.00
2019-04-16T02:57:30.675Z,0.00
2019-04-16T02:58:34.522Z,0.00
2019-04-16T02:59:30.656Z,0.00
2019-04-16T03:00:30.658Z,0.00
2019-04-16T03:01:30.628Z,0.00
2019-04-16T03:02:30.609Z,0.00
2019-04-16T03:03:30.605Z,0.00
2019-04-16T03:04:30.593Z,0.00
2019-04-16T03:05:30.600Z,0.00
2019-04-16T03:06:31.898Z,0.00
2019-04-16T03:07:32.768Z,0.00
2019-04-16T03:08:30.593Z,0.00
2019-04-16T03:09:30.542Z,0.00
2019-04-16T03:10:30.560Z,0.00
2019-04-16T03:11:30.548Z,0.00
2019-04-16T03:12:30.503Z,0.00
2019-04-16T03:13:30.486Z,0.00
2019-04-16T03:14:30.821Z,0.00
2019-04-16T03:15:33.673Z,0.00
2019-04-16T03:16:30.502Z,0.00
2019-04-16T03:17:30.451Z,0.00
2019-04-16T03:18:30.436Z,0.00
2019-04-16T03:19:30.428Z,0.00
2019-04-16T03:20:30.424Z,0.00
2019-04-16T03:21:30.461Z,0.00
2019-04-16T03:22:33.120Z,0.00
2019-04-16T03:23:30.384Z,0.00
2019-04-16T03:24:30.376Z,0.00
2019-04-16T03:25:30.360Z,0.00
2019-04-16T03:26:30.373Z,0.00
2019-04-16T03:27:30.363Z,0.00
2019-04-16T03:28:30.334Z,0.00
2019-04-16T03:29:31.162Z,0.00
2019-04-16T03:30:30.339Z,0.00
2019-04-16T03:31:30.369Z,0.00
2019-04-16T03:32:35.208Z,0.00
2019-04-16T03:33:31.280Z,0.00
2019-04-16T03:34:30.274Z,0.00
2019-04-16T03:35:30.252Z,0.00
2019-04-16T03:36:30.397Z,0.00
2019-04-16T03:37:32.982Z,0.00
2019-04-16T03:38:30.233Z,0.00
2019-04-16T03:39:30.240Z,0.00
2019-04-16T03:40:30.224Z,0.00
2019-04-16T03:41:30.193Z,0.00
2019-04-16T03:42:30.216Z,0.00
2019-04-16T03:43:32.786Z,0.00
2019-04-16T03:44:30.170Z,0.00
2019-04-16T03:45:30.157Z,0.00
2019-04-16T03:46:30.138Z,0.00
2019-04-16T03:47:30.227Z,0.00
2019-04-16T03:48:30.124Z,0.00
2019-04-16T03:49:30.126Z,0.00
2019-04-16T03:50:31.373Z,0.00
2019-04-16T03:51:32.661Z,0.00
2019-04-16T03:52:31.173Z,0.00
2019-04-16T03:53:30.074Z,0.00
2019-04-16T03:54:30.063Z,0.00
2019-04-16T03:55:30.044Z,5.62
2019-04-16T03:56:30.605Z,5.62
2019-04-16T03:57:32.621Z,5.62
2019-04-16T03:58:30.019Z,5.62
2019-04-16T03:59:30.021Z,5.62
2019-04-16T04:00:29.996Z,5.62
2019-04-16T04:01:29.997Z,11.25
2019-04-16T04:02:30.018Z,11.25
2019-04-16T04:03:29.977Z,11.25
2019-04-16T04:04:30.084Z,11.25
2019-04-16T04:05:29.938Z,11.25
2019-04-16T04:06:29.952Z,16.88
2019-04-16T04:07:29.916Z,16.88
2019-04-16T04:08:29.949Z,16.88
2019-04-16T04:09:29.901Z,22.50
2019-04-16T04:10:31.317Z,22.50
2019-04-16T04:11:30.902Z,22.50
2019-04-16T04:12:29.869Z,28.12
2019-04-16T04:13:29.892Z,28.12
2019-04-16T04:14:29.846Z,28.12
2019-04-16T04:15:29.840Z,33.75
2019-04-16T04:16:30.573Z,33.75
2019-04-16T04:17:29.816Z,39.38
2019-04-16T04:18:29.887Z,39.38
2019-04-16T04:19:29.804Z,39.38
2019-04-16T04:20:29.786Z,45.00
2019-04-16T04:21:29.771Z,45.00
2019-04-16T04:22:29.772Z,50.62
2019-04-16T04:23:29.786Z,50.62
2019-04-16T04:24:31.474Z,56.25
2019-04-16T04:25:29.732Z,56.25
2019-04-16T04:26:29.725Z,61.88
2019-04-16T04:27:29.786Z,61.88
2019-04-16T04:28:29.759Z,67.50
2019-04-16T04:29:29.692Z,67.50
2019-04-16T04:30:29.735Z,67.50
2019-04-16T04:31:32.367Z,73.12
2019-04-16T04:32:32.479Z,78.75
2019-04-16T04:33:30.687Z,78.75
2019-04-16T04:34:29.636Z,84.38
2019-04-16T04:35:29.624Z,84.38
2019-04-16T04:36:29.619Z,90.00
2019-04-16T04:37:31.370Z,90.00
2019-04-16T04:38:29.594Z,95.62
2019-04-16T04:39:29.600Z,95.62
2019-04-16T04:40:43.485Z,95.62
2019-04-16T04:41:30.573Z,95.62
2019-04-16T04:42:29.588Z,101.25
2019-04-16T04:43:31.936Z,101.25
2019-04-16T04:44:29.555Z,101.25
2019-04-16T04:45:29.520Z,101.25
2019-04-16T04:46:29.541Z,106.88
2019-04-16T04:47:29.515Z,106.88
2019-04-16T04:48:29.504Z,112.50
2019-04-16T04:49:30.395Z,123.75
2019-04-16T04:50:29.472Z,123.75
2019-04-16T04:51:29.468Z,123.75
2019-04-16T04:52:29.450Z,146.25
2019-04-16T04:53:29.447Z,157.50
2019-04-16T04:54:29.440Z,157.50
2019-04-16T04:55:29.422Z,157.50
2019-04-16T04:56:29.418Z,157.50
2019-04-16T04:57:31.167Z,157.50
2019-04-16T04:58:33.829Z,157.50
2019-04-16T04:59:30.410Z,163.12
2019-04-16T05:00:29.375Z,168.75
2019-04-16T05:01:29.359Z,168.75
2019-04-16T05:02:29.338Z,174.38
2019-04-16T05:03:29.368Z,180.00
2019-04-16T05:04:29.364Z,185.62
2019-04-16T05:05:29.310Z,185.62
2019-04-16T05:06:29.312Z,196.88
2019-04-16T05:07:29.422Z,202.50
2019-04-16T05:08:29.348Z,202.50
2019-04-16T05:09:29.766Z,208.12
2019-04-16T05:10:29.269Z,213.75
2019-04-16T05:11:29.242Z,219.38
2019-04-16T05:12:29.232Z,225.00
2019-04-16T05:13:29.226Z,230.62
2019-04-16T05:14:29.228Z,230.62
2019-04-16T05:15:30.053Z,236.25
2019-04-16T05:16:31.458Z,236.25
2019-04-16T05:17:30.190Z,241.88
2019-04-16T05:18:29.167Z,241.88
2019-04-16T05:19:29.167Z,247.50
2019-04-16T05:20:29.907Z,247.50
2019-04-16T05:21:29.154Z,253.12
2019-04-16T05:22:29.126Z,258.75
2019-04-16T05:23:29.139Z,258.75
2019-04-16T05:24:29.951Z,270.00
2019-04-16T05:25:32.912Z,275.62
2019-04-16T05:26:29.093Z,281.25
2019-04-16T05:27:29.634Z,286.88
2019-04-16T05:28:29.068Z,309.38
2019-04-16T05:29:29.065Z,388.12
2019-04-16T05:30:29.075Z,444.38
2019-04-16T05:31:31.150Z,466.88
2019-04-16T05:32:32.949Z,461.25
2019-04-16T05:33:29.024Z,495.00
2019-04-16T05:34:29.025Z,450.00
2019-04-16T05:35:29.023Z,461.25
2019-04-16T05:36:28.978Z,478.12
2019-04-16T05:37:28.979Z,399.38
2019-04-16T05:38:28.969Z,466.88
2019-04-16T05:39:28.984Z,568.12
2019-04-16T05:40:34.356Z,720.00
2019-04-16T05:41:29.933Z,804.38
2019-04-16T05:42:28.946Z,849.38
2019-04-16T05:43:30.248Z,905.62
2019-04-16T05:44:33.189Z,911.25
2019-04-16T05:45:29.953Z,933.75
2019-04-16T05:46:28.911Z,945.00
2019-04-16T05:47:28.858Z,967.50
2019-04-16T05:48:28.859Z,995.62
2019-04-16T05:49:28.841Z,1029.38
2019-04-16T05:50:29.912Z,1068.75
2019-04-16T05:51:31.440Z,1096.88
2019-04-16T05:52:28.812Z,1085.62
2019-04-16T05:53:28.838Z,1085.62
2019-04-16T05:54:28.791Z,1096.88
2019-04-16T05:55:28.784Z,1119.38
2019-04-16T05:56:28.793Z,1181.25
2019-04-16T05:57:28.763Z,1248.75
2019-04-16T05:58:30.852Z,1276.88
2019-04-16T05:59:33.469Z,1282.50
2019-04-16T06:00:29.737Z,1237.50
2019-04-16T06:01:28.739Z,1164.38
2019-04-16T06:02:28.699Z,1113.75
2019-04-16T06:03:28.703Z,1119.38
2019-04-16T06:04:28.688Z,1147.50
2019-04-16T06:05:28.673Z,1231.88
2019-04-16T06:06:31.816Z,1350.00
2019-04-16T06:07:28.660Z,1440.00
2019-04-16T06:08:28.639Z,1445.62
2019-04-16T06:09:28.622Z,1417.50
2019-04-16T06:10:28.611Z,1411.88
2019-04-16T06:11:35.555Z,1434.38
2019-04-16T06:12:32.482Z,1462.50
2019-04-16T06:13:28.619Z,1513.12
2019-04-16T06:14:28.589Z,1552.50
2019-04-16T06:15:28.561Z,1575.00
2019-04-16T06:16:30.979Z,1563.75
2019-04-16T06:17:31.876Z,1552.50
2019-04-16T06:18:28.556Z,1546.88
2019-04-16T06:19:28.537Z,1575.00
2019-04-16T06:20:28.551Z,1597.50
2019-04-16T06:21:28.489Z,1625.62
2019-04-16T06:22:30.052Z,1653.75
2019-04-16T06:23:31.737Z,1693.12
2019-04-16T06:24:28.479Z,1760.62
2019-04-16T06:25:28.565Z,1816.88
2019-04-16T06:26:28.462Z,1811.25
2019-04-16T06:27:28.477Z,1800.00
2019-04-16T06:28:28.423Z,1760.62
2019-04-16T06:29:29.461Z,1749.38
2019-04-16T06:30:32.944Z,1783.12
2019-04-16T06:31:29.405Z,1845.00
2019-04-16T06:32:28.873Z,1873.12
2019-04-16T06:33:28.390Z,1901.25
2019-04-16T06:34:28.351Z,1906.88
2019-04-16T06:35:42.288Z,1923.75
2019-04-16T06:36:29.338Z,1923.75
2019-04-16T06:37:28.348Z,1946.25
2019-04-16T06:38:28.501Z,1968.75
2019-04-16T06:39:30.059Z,2013.75
2019-04-16T06:40:31.764Z,2058.75
2019-04-16T06:41:40.936Z,2058.75
2019-04-16T06:42:29.295Z,2064.38
2019-04-16T06:43:28.258Z,2064.38
2019-04-16T06:44:30.230Z,2081.25
2019-04-16T06:45:29.238Z,2103.75
2019-04-16T06:46:28.234Z,2120.62
2019-04-16T06:47:28.247Z,2137.50
2019-04-16T06:48:28.213Z,2154.38
2019-04-16T06:49:28.224Z,2210.62
2019-04-16T06:50:32.179Z,2216.25
2019-04-16T06:51:31.658Z,2216.25
2019-04-16T06:52:28.186Z,2238.75
2019-04-16T06:53:30.260Z,2283.75
2019-04-16T06:54:32.088Z,2272.50
2019-04-16T06:55:28.132Z,2250.00
2019-04-16T06:56:28.118Z,2216.25
2019-04-16T06:57:28.115Z,2216.25
2019-04-16T06:58:28.479Z,2261.25
2019-04-16T06:59:30.669Z,2328.75
2019-04-16T07:00:28.073Z,2385.00
2019-04-16T07:01:28.061Z,2424.38
2019-04-16T07:02:28.067Z,2441.25
2019-04-16T07:03:28.086Z,2446.88
2019-04-16T07:04:30.470Z,2469.38
2019-04-16T07:05:32.148Z,2497.50
2019-04-16T07:06:29.018Z,2520.00
2019-04-16T07:07:38.435Z,2553.75
2019-04-16T07:08:37.988Z,2553.75
2019-04-16T07:09:41.096Z,2581.88
2019-04-16T07:10:34.094Z,2610.00
2019-04-16T07:11:28.978Z,2615.62
2019-04-16T07:12:28.606Z,2632.50
2019-04-16T07:13:27.946Z,2626.88
2019-04-16T07:14:27.960Z,2638.12
2019-04-16T07:15:28.890Z,2638.12
2019-04-16T07:16:29.094Z,2643.75
2019-04-16T07:17:33.159Z,2671.88
2019-04-16T07:18:28.890Z,2688.75
2019-04-16T07:19:27.907Z,2688.75
2019-04-16T07:20:27.875Z,2677.50
2019-04-16T07:21:27.862Z,2666.25
2019-04-16T07:22:27.835Z,2666.25
2019-04-16T07:23:27.865Z,2722.50
2019-04-16T07:24:30.672Z,2761.88
2019-04-16T07:25:29.570Z,2829.38
2019-04-16T07:26:27.838Z,2880.00
2019-04-16T07:27:27.790Z,2857.50
2019-04-16T07:28:27.885Z,2806.88
2019-04-16T07:29:31.664Z,2705.62
2019-04-16T07:30:28.773Z,2610.00
2019-04-16T07:31:33.542Z,2598.75
2019-04-16T07:32:28.747Z,2666.25
2019-04-16T07:33:27.724Z,2818.12
2019-04-16T07:34:27.750Z,2970.00
2019-04-16T07:35:27.703Z,3060.00
2019-04-16T07:36:28.022Z,3099.38
2019-04-16T07:37:27.692Z,3088.12
2019-04-16T07:38:27.677Z,3054.38
2019-04-16T07:39:29.526Z,3031.88
2019-04-16T07:40:27.662Z,3048.75
2019-04-16T07:41:27.654Z,3065.62
2019-04-16T07:42:27.639Z,3082.50
2019-04-16T07:43:30.988Z,3065.62
2019-04-16T07:44:27.611Z,3065.62
2019-04-16T07:45:27.639Z,3076.88
2019-04-16T07:46:27.595Z,3105.00
2019-04-16T07:47:27.578Z,3133.12
2019-04-16T07:48:27.576Z,3150.00
2019-04-16T07:49:27.561Z,3172.50
2019-04-16T07:50:29.473Z,3166.88
2019-04-16T07:51:27.553Z,3161.25
2019-04-16T07:52:27.520Z,3172.50
2019-04-16T07:53:27.522Z,3166.88
2019-04-16T07:54:27.516Z,3161.25
2019-04-16T07:55:27.597Z,3200.62
2019-04-16T07:56:27.482Z,3217.50
2019-04-16T07:57:27.464Z,3262.50
2019-04-16T07:58:27.459Z,3313.12
2019-04-16T07:59:32.017Z,3335.62
2019-04-16T08:00:28.457Z,3346.88
2019-04-16T08:01:27.429Z,3346.88
2019-04-16T08:02:27.420Z,3386.25
2019-04-16T08:03:27.633Z,3408.75
2019-04-16T08:04:29.289Z,3420.00
2019-04-16T08:05:28.135Z,3448.12
2019-04-16T08:06:27.387Z,3465.00
2019-04-16T08:07:27.362Z,3498.75
2019-04-16T08:08:27.360Z,3510.00
2019-04-16T08:09:29.853Z,3487.50
2019-04-16T08:10:27.374Z,3425.62
2019-04-16T08:11:27.328Z,3358.12
2019-04-16T08:12:30.526Z,3307.50
2019-04-16T08:13:27.332Z,3307.50
2019-04-16T08:14:27.310Z,3352.50
2019-04-16T08:15:27.325Z,3442.50
2019-04-16T08:16:27.277Z,3459.38
2019-04-16T08:17:27.267Z,3397.50
2019-04-16T08:18:27.255Z,3341.25
2019-04-16T08:19:36.820Z,3324.38
2019-04-16T08:20:28.266Z,3341.25
2019-04-16T08:21:27.242Z,3425.62
2019-04-16T08:22:27.287Z,3526.88
2019-04-16T08:23:27.210Z,3555.00
2019-04-16T08:24:27.191Z,3588.75
2019-04-16T08:25:27.203Z,3639.38
2019-04-16T08:26:27.195Z,3661.88
2019-04-16T08:27:27.166Z,3667.50
2019-04-16T08:28:27.152Z,3701.25
2019-04-16T08:29:27.148Z,3735.00
2019-04-16T08:30:27.146Z,3751.88
2019-04-16T08:31:27.140Z,3751.88
2019-04-16T08:32:27.100Z,3549.38
2019-04-16T08:33:28.511Z,2829.38
2019-04-16T08:34:27.088Z,1845.00
2019-04-16T08:35:27.085Z,2210.62
2019-04-16T08:36:27.083Z,3071.25
2019-04-16T08:37:27.062Z,3515.62
2019-04-16T08:38:27.040Z,3600.00
2019-04-16T08:39:27.041Z,2936.25
2019-04-16T08:40:27.030Z,3105.00
2019-04-16T08:41:27.027Z,2480.62
2019-04-16T08:42:29.456Z,2413.12
2019-04-16T08:43:29.626Z,2818.12
2019-04-16T08:44:26.983Z,2761.88
2019-04-16T08:45:26.972Z,2576.25
2019-04-16T08:46:28.381Z,1608.75
2019-04-16T08:47:26.953Z,1198.12
2019-04-16T08:48:26.936Z,1209.38
2019-04-16T08:49:26.947Z,1552.50
2019-04-16T08:50:27.053Z,1603.12
2019-04-16T08:51:30.838Z,1220.62
2019-04-16T08:52:26.941Z,765.00
2019-04-16T08:53:26.895Z,961.88
2019-04-16T08:54:26.873Z,821.25
2019-04-16T08:55:26.880Z,1001.25
2019-04-16T08:56:26.870Z,1423.12
2019-04-16T08:57:31.771Z,1271.25
2019-04-16T08:58:27.837Z,1299.38
2019-04-16T08:59:26.829Z,1980.00
2019-04-16T09:00:26.827Z,3988.12
2019-04-16T09:01:26.829Z,3380.62
2019-04-16T09:02:27.295Z,3228.75
2019-04-16T09:03:29.907Z,3003.75
2019-04-16T09:04:26.760Z,1968.75
2019-04-16T09:05:26.761Z,1693.12
2019-04-16T09:06:26.779Z,1282.50
2019-04-16T09:07:26.742Z,1738.12
2019-04-16T09:08:26.731Z,995.62
2019-04-16T09:09:26.726Z,590.62
2019-04-16T09:10:29.931Z,1063.12
2019-04-16T09:11:28.438Z,1625.62
2019-04-16T09:12:26.749Z,1569.38
2019-04-16T09:13:26.674Z,1755.00
2019-04-16T09:14:26.667Z,2396.25
2019-04-16T09:15:27.217Z,2430.00
2019-04-16T09:16:26.674Z,1614.38
2019-04-16T09:17:26.642Z,1766.25
2019-04-16T09:18:26.626Z,1951.88
2019-04-16T09:19:26.603Z,2064.38
2019-04-16T09:20:26.606Z,894.38
2019-04-16T09:21:28.120Z,1372.50
2019-04-16T09:22:26.571Z,3459.38
2019-04-16T09:23:27.040Z,3622.50
2019-04-16T09:24:26.562Z,3037.50
2019-04-16T09:25:26.554Z,2643.75
2019-04-16T09:26:26.564Z,2385.00
2019-04-16T09:27:30.122Z,3268.12
2019-04-16T09:28:27.548Z,2385.00
2019-04-16T09:29:26.509Z,1766.25
2019-04-16T09:30:26.514Z,703.12
2019-04-16T09:31:26.504Z,781.88
2019-04-16T09:32:28.232Z,2216.25
2019-04-16T09:33:26.494Z,2666.25
2019-04-16T09:34:26.454Z,2891.25
2019-04-16T09:35:26.437Z,2700.00
2019-04-16T09:36:26.443Z,2604.38
2019-04-16T09:37:28.746Z,2143.12
2019-04-16T09:38:26.399Z,2160.00
2019-04-16T09:39:26.397Z,1878.75
2019-04-16T09:40:26.387Z,2486.25
2019-04-16T09:41:26.384Z,1935.00
2019-04-16T09:42:26.377Z,1918.12
2019-04-16T09:43:26.382Z,1670.62
2019-04-16T09:44:29.760Z,1361.25
2019-04-16T09:45:26.338Z,2475.00
2019-04-16T09:46:49.073Z,2626.88
2019-04-16T09:47:28.960Z,1473.75
2019-04-16T09:48:27.304Z,1563.75
2019-04-16T09:49:26.293Z,1350.00
2019-04-16T09:50:26.290Z,961.88
2019-04-16T09:51:26.408Z,1597.50
2019-04-16T09:52:26.271Z,2306.25
2019-04-16T09:53:33.562Z,2430.00
2019-04-16T09:54:27.262Z,2756.25
2019-04-16T09:55:26.235Z,1479.38
2019-04-16T09:56:29.087Z,731.25
2019-04-16T09:57:30.931Z,961.88
2019-04-16T09:58:27.196Z,2047.50
2019-04-16T09:59:26.200Z,1546.88
2019-04-16T10:00:26.194Z,1456.88
2019-04-16T10:01:26.159Z,2351.25
2019-04-16T10:02:26.185Z,2851.88
2019-04-16T10:03:28.329Z,1968.75
2019-04-16T10:04:26.306Z,1125.00
2019-04-16T10:05:26.516Z,1203.75
2019-04-16T10:06:26.255Z,2621.25
2019-04-16T10:07:26.164Z,2227.50
2019-04-16T10:08:29.146Z,1636.88
2019-04-16T10:09:26.089Z,1687.50
2019-04-16T10:10:28.306Z,1344.38
2019-04-16T10:11:26.089Z,1648.12
2019-04-16T10:12:26.115Z,1721.25
2019-04-16T10:13:32.878Z,1738.12
2019-04-16T10:14:27.052Z,1850.62
2019-04-16T10:15:26.023Z,3116.25
2019-04-16T10:16:26.020Z,2030.62
2019-04-16T10:17:26.017Z,3161.25
2019-04-16T10:18:26.030Z,3735.00
2019-04-16T10:19:26.038Z,4432.50
2019-04-16T10:20:25.977Z,4713.75
2019-04-16T10:21:28.560Z,4533.75
2019-04-16T10:22:25.942Z,4635.00
2019-04-16T10:23:25.974Z,4348.12
2019-04-16T10:24:25.922Z,1991.25
2019-04-16T10:25:25.905Z,2081.25
2019-04-16T10:26:25.919Z,2621.25
2019-04-16T10:27:31.242Z,2311.88
2019-04-16T10:28:26.925Z,2221.88
2019-04-16T10:29:25.866Z,1693.12
2019-04-16T10:30:25.953Z,2300.62
2019-04-16T10:31:25.863Z,2250.00
2019-04-16T10:32:25.876Z,2126.25
2019-04-16T10:33:25.897Z,1271.25
2019-04-16T10:34:25.995Z,1434.38
2019-04-16T10:35:25.821Z,1260.00
2019-04-16T10:36:25.818Z,1355.62
2019-04-16T10:37:25.818Z,1738.12
2019-04-16T10:38:25.785Z,1361.25
2019-04-16T10:39:25.890Z,961.88
2019-04-16T10:40:25.761Z,973.12
2019-04-16T10:41:25.744Z,1614.38
2019-04-16T10:42:25.737Z,2030.62
2019-04-16T10:43:25.716Z,2143.12
2019-04-16T10:44:25.750Z,1434.38
2019-04-16T10:45:25.729Z,1884.38
2019-04-16T10:46:25.720Z,1490.62
2019-04-16T10:47:25.689Z,2227.50
2019-04-16T10:48:25.664Z,3071.25
2019-04-16T10:49:25.706Z,3414.38
2019-04-16T10:50:25.661Z,4168.12
2019-04-16T10:51:25.664Z,3110.62
2019-04-16T10:52:25.615Z,2941.88
2019-04-16T10:53:25.609Z,3251.25
2019-04-16T10:54:25.604Z,2587.50
2019-04-16T10:55:25.623Z,2311.88
2019-04-16T10:56:25.574Z,2790.00
2019-04-16T10:57:25.646Z,3808.12
2019-04-16T10:58:25.599Z,3116.25
2019-04-16T10:59:25.555Z,3285.00
2019-04-16T11:00:25.566Z,4055.62
2019-04-16T11:01:30.493Z,4426.88
2019-04-16T11:02:28.724Z,3740.62
2019-04-16T11:03:28.511Z,3819.38
2019-04-16T11:04:25.488Z,4910.62
2019-04-16T11:05:25.520Z,4871.25
2019-04-16T11:06:25.579Z,4893.75
2019-04-16T11:07:25.475Z,4927.50
2019-04-16T11:08:25.465Z,4635.00
2019-04-16T11:09:25.465Z,4511.25
2019-04-16T11:10:25.452Z,4860.00
2019-04-16T11:11:25.459Z,4865.62
2019-04-16T11:12:25.475Z,4927.50
2019-04-16T11:13:25.393Z,4381.88
2019-04-16T11:14:25.418Z,4511.25
2019-04-16T11:15:25.402Z,4882.50
2019-04-16T11:16:25.386Z,4860.00
2019-04-16T11:17:25.354Z,4865.62
2019-04-16T11:18:25.387Z,4860.00
2019-04-16T11:19:25.360Z,4831.88
2019-04-16T11:20:25.338Z,4854.38
2019-04-16T11:21:25.368Z,4860.00
2019-04-16T11:22:25.306Z,4871.25
2019-04-16T11:23:25.344Z,4950.00
2019-04-16T11:24:25.320Z,4950.00
2019-04-16T11:25:25.276Z,4950.00
2019-04-16T11:26:25.300Z,4921.88
2019-04-16T11:27:25.295Z,4876.88
2019-04-16T11:28:25.293Z,4882.50
2019-04-16T11:29:25.237Z,4916.25
2019-04-16T11:30:25.243Z,4876.88
2019-04-16T11:31:25.244Z,4893.75
2019-04-16T11:32:25.232Z,4865.62
2019-04-16T11:33:27.524Z,4871.25
2019-04-16T11:34:25.210Z,4860.00
2019-04-16T11:35:25.174Z,4865.62
2019-04-16T11:36:30.366Z,4905.00
2019-04-16T11:37:26.191Z,4899.38
2019-04-16T11:38:25.142Z,4882.50
2019-04-16T11:39:25.136Z,4826.25
2019-04-16T11:40:25.148Z,4803.75
2019-04-16T11:41:25.120Z,4803.75
2019-04-16T11:42:25.138Z,4854.38
2019-04-16T11:43:25.133Z,4831.88
2019-04-16T11:44:25.089Z,4798.12
2019-04-16T11:45:25.103Z,4831.88
2019-04-16T11:46:25.109Z,4865.62
2019-04-16T11:47:27.907Z,3020.62
2019-04-16T11:48:25.082Z,4854.38
2019-04-16T11:49:25.064Z,4820.62
2019-04-16T11:50:25.049Z,4218.75
2019-04-16T11:51:25.029Z,4696.88
2019-04-16T11:52:25.053Z,2992.50
2019-04-16T11:53:25.042Z,4539.38
2019-04-16T11:54:25.004Z,4556.25
2019-04-16T11:55:24.995Z,2300.62
2019-04-16T11:56:24.988Z,2874.38
2019-04-16T11:57:24.968Z,2992.50
2019-04-16T11:58:24.978Z,3594.38
2019-04-16T11:59:24.966Z,4893.75
2019-04-16T12:00:24.958Z,4893.75
2019-04-16T12:01:24.913Z,4899.38
2019-04-16T12:02:24.913Z,4809.38
2019-04-16T12:03:24.927Z,4831.88
2019-04-16T12:04:24.900Z,4770.00
2019-04-16T12:05:24.888Z,4775.62
2019-04-16T12:06:28.383Z,4758.75
2019-04-16T12:07:24.879Z,4775.62
2019-04-16T12:08:24.913Z,4820.62
2019-04-16T12:09:24.852Z,4803.75
2019-04-16T12:10:24.856Z,4792.50
2019-04-16T12:11:24.830Z,4809.38
2019-04-16T12:12:24.854Z,4736.25
2019-04-16T12:13:24.819Z,4753.12
2019-04-16T12:14:32.400Z,4741.88
2019-04-16T12:15:25.771Z,4696.88
2019-04-16T12:16:25.428Z,4713.75
2019-04-16T12:17:24.777Z,4595.62
2019-04-16T12:18:24.746Z,4567.50
2019-04-16T12:19:24.762Z,4556.25
2019-04-16T12:20:24.743Z,3408.75
2019-04-16T12:21:24.758Z,4629.38
2019-04-16T12:22:24.723Z,4674.38
2019-04-16T12:23:24.720Z,4702.50
2019-04-16T12:24:24.715Z,4646.25
2019-04-16T12:25:26.635Z,4685.62
2019-04-16T12:26:24.686Z,4725.00
2019-04-16T12:27:24.705Z,4674.38
2019-04-16T12:28:24.662Z,4640.62
2019-04-16T12:29:24.726Z,4685.62
2019-04-16T12:30:24.647Z,4674.38
2019-04-16T12:31:24.642Z,4651.88
2019-04-16T12:32:26.863Z,4567.50